March AFB, California
Current Conditions -  °F | °C
As of 12:58 AM on Monday 20 Oct 2014 (Local Time) from KRIV Reporting Station
Clear Clear  
Wind Chill: 58°   Ceiling: Unl
Heat Index: 58°   Visibility: 10mi
Dew Point: 54°   Wind: 3mph
Humidity: 87%   Direction: 280°W
Pressure: 29.92"   Gusts: NA
Location:  33.89°N, 117.26°W
Report Text: KRIV 200758Z AUTO 28003KT 10SM CLR 14/12 A2992 RMK AO2 SLP122 T01430122 402640107
Loading
Personal Weather Stations






























Interactive Weather Map
Tropical Storm Tracking
New forecast layout! Learn more

10-Day Weather Forecast

Advertisements
Track Severe Weather on mobile